Date,TemperatureHighF,TemperatureAvgF,TemperatureLowF,DewpointHighF,DewpointAvgF,DewpointLowF,HumidityHigh,HumidityAvg,HumidityLow,PressureMaxIn,PressureMinIn,WindSpeedMaxMPH,WindSpeedAvgMPH,GustSpeedMaxMPH,PrecipitationSumIn
2013-1-1,33,24,17,-100,-100,-100,0,0,100,0.00,40.00,0,-999,0,0.00
2013-1-2,32,24,14,-100,-100,-100,0,0,100,0.00,40.00,0,-999,0,0.01
2013-1-3,38,27,15,-100,-100,-100,0,0,100,0.00,40.00,0,-999,0,0.01
2013-1-4,51,33,26,-100,-100,-100,0,0,100,0.00,40.00,0,-999,0,0.00
2013-1-5,39,27,21,-100,-100,-100,0,0,100,0.00,40.00,0,-999,0,0.00
2013-1-6,57,38,28,-100,-100,-100,0,0,100,0.00,40.00,0,-999,0,0.00
2013-1-7,44,32,26,-100,-100,-100,0,0,100,0.00,40.00,0,-999,0,0.00
2013-1-8,45,35,24,-100,-100,-100,0,0,100,0.00,40.00,0,-999,0,0.00
2013-1-9,55,45,25,-100,-100,-100,0,0,100,0.00,40.00,0,-999,0,0.00
2013-1-10,57,39,27,-100,-100,-100,0,0,100,0.00,40.00,0,-999,0,0.00
2013-1-11,25,14,8,-100,-100,-100,0,0,100,0.00,40.00,0,-999,0,0.00
2013-1-12,15,10,6,-100,-100,-100,0,0,100,0.00,40.00,0,-999,0,0.00
2013-1-13,18,10,4,-100,-100,-100,0,0,100,0.00,40.00,0,-999,0,0.00
2013-1-14,24,12,5,-100,-100,-100,0,0,100,0.00,40.00,0,-999,0,0.01
2013-1-15,40,30,17,-100,-100,-100,0,0,100,0.00,40.00,0,-999,0,0.12
2013-1-16,52,35,28,-100,-100,-100,0,0,100,0.00,40.00,0,-999,0,0.06
2013-1-17,50,34,27,-100,-100,-100,0,0,100,0.00,40.00,0,-999,0,0.02
2013-1-18,58,43,34,-100,-100,-100,0,0,100,0.00,40.00,0,-999,0,0.01
2013-1-19,45,33,27,-100,-100,-100,0,0,100,0.00,40.00,0,-999,0,0.00
2013-1-20,33,25,19,-100,-100,-100,0,0,100,0.00,40.00,0,-999,0,0.00
2013-1-21,47,27,16,-100,-100,-100,0,0,100,0.00,40.00,0,-999,0,0.00
2013-1-22,49,34,29,-100,-100,-100,0,0,100,0.00,40.00,0,-999,0,0.00
2013-1-23,47,38,30,-100,-100,-100,0,0,100,0.00,40.00,0,-999,0,0.00
2013-1-24,55,43,29,-100,-100,-100,0,0,100,0.00,40.00,0,-999,0,0.00
2013-1-25,52,36,27,-100,-100,-100,0,0,100,0.00,40.00,0,-999,0,0.00
2013-1-26,54,40,34,-100,-100,-100,0,0,100,0.00,40.00,0,-999,0,0.00
2013-1-27,39,34,28,-100,-100,-100,0,0,100,0.00,40.00,0,-999,0,0.00
2013-1-28,34,26,16,-100,-100,-100,0,0,100,0.00,40.00,0,-999,0,0.06
2013-1-29,27,17,3,-100,-100,-100,0,0,100,0.00,40.00,0,-999,0,0.01
2013-1-30,35,24,9,-100,-100,-100,0,0,100,0.00,40.00,0,-999,0,0.05
2013-1-31,33,25,13,-100,-100,-100,0,0,100,0.00,40.00,0,-999,0,0.01